Impacts METAR Board
IDs:

KDCA - Washington/National, VA, US

Updated at: 0200 UTC 12 Dec 2018
Potential Impact None Slight Moderate High
Time 11/14Z 11/15Z 11/16Z 11/17Z 11/18Z 11/19Z 11/20Z 11/21Z 11/22Z 11/23Z 12/00Z 12/01Z 12/02Z
Temp33 36 39 40 42 44 46 45 42 40 39 38 38
Dewpt24 24 25 23 22 21 17 19 23 23 23 23 23
Altim30.19 30.20 30.17 30.14 30.09 30.05 30.04 30.04 30.03 30.04 30.04 30.04 30.05
VIS10 10 10 10 10 10 10 10 10 10 10 10 10
CIG-- -- -- -- -- -- -- -- -- -- -- -- --
CoverFEWCLRCLRCLRCLRCLRCLRCLRCLRCLRCLRCLRCLR
FltCatVFRVFRVFRVFRVFRVFRVFRVFRVFRVFRVFRVFRVFR
WX--------------------------
WDir36020507001302302302102002202100
WSpd5 5 4 3 0 3 4 8 8 6 7 6 0
WGst-- -- -- -- -- -- -- -- -- -- -- -- --
Raw hourly METARs
KDCA 111352Z 36005KT 10SM FEW250 01/M04 A3019 RMK AO2 SLP223 T00061044
KDCA 111452Z 02005KT 10SM CLR 02/M04 A3020 RMK AO2 SLP224 T00221044 53001 $
KDCA 111552Z 05004KT 10SM CLR 04/M04 A3017 RMK AO2 SLP215 T00391039
KDCA 111652Z 07003KT 10SM CLR 04/M05 A3014 RMK AO2 SLP205 T00441050
KDCA 111752Z 00000KT 10SM CLR 06/M06 A3009 RMK AO2 SLP190 T00561056 10056 21022 58034
KDCA 111852Z 13003KT 10SM CLR 07/M06 A3005 RMK AO2 SLP176 T00671061
KDCA 111952Z 23004KT 10SM CLR 08/M08 A3004 RMK AO2 SLP170 T00781083
KDCA 112052Z 23008KT 10SM CLR 07/M07 A3004 RMK AO2 SLP171 T00721072 55019
KDCA 112152Z 21008KT 10SM CLR 06/M05 A3003 RMK AO2 SLP170 T00561050
KDCA 112252Z 20006KT 10SM CLR 04/M05 A3004 RMK AO2 SLP170 T00441050
KDCA 112352Z 22007KT 10SM CLR 04/M05 A3004 RMK AO2 SLP171 T00391050 10083 20039 55000
KDCA 120052Z 21006KT 10SM CLR 03/M05 A3004 RMK AO2 SLP171 T00331050
KDCA 120152Z 00000KT 10SM CLR 03/M05 A3005 RMK AO2 SLP176 T00331050



Page loaded:  02:59 UTC  |   06:59 PM Pacific  |   07:59 PM Mountain  |   08:59 PM Central  |   09:59 PM Eastern

 

ADVISORIES

FORECASTS

FORECASTS

OBSERVATIONS

USER TOOLS

ABOUT US